Terminal Aerodrome Forecast
Issued by NWS

Home | Current Version | Previous Version | Text Only | Print | Product List | Glossary Off
Versions: 1 2 3 4 5 6 7 8 9 10 11 12 13 14 15 16 17 18 19 20 21 22 23

813
FTUS43 KBIS 220143 AAA
TAFJMS
TAF AMD
KJMS 220143Z 2202/2224 00000KT 6SM BR OVC009
     FM220300 02003KT 3SM BR OVC004
     FM220600 03004KT 1SM BR OVC003
      TEMPO 2207/2211 1/2SM FZFG OVC002
     FM221800 36007KT P6SM OVC008
     FM222100 35007KT P6SM BKN010=

USA.gov is the U.S. government's official web portal to all federal, state and local government web resources and services.